Time;durP1;ratioP1;P1;durP2;ratioP2;P2;SDS_P1;SDS_P2;PMS_P1;PMS_P2;Temp;Humidity;BMP_temperature;BMP_pressure;BME280_temperature;BME280_humidity;BME280_pressure;Samples;Min_cycle;Max_cycle;Signal;HPM_P1;HPM_P2
2021/04/21 00:02:06;;;;;;;7.03;5.47;;;;;;;;;;5033255;28;20447;-79
2021/04/21 00:04:33;;;;;;;7.85;5.88;;;;;;;;;;5031986;28;20369;-79
2021/04/21 00:07:00;;;;;;;8.77;5.63;;;;;;;;;;5032997;28;20365;-79
2021/04/21 00:09:26;;;;;;;11.13;6.20;;;;;;;;;;5033115;28;20866;-79
2021/04/21 00:11:54;;;;;;;8.32;6.05;;;;;;;;;;5031922;28;20413;-79
2021/04/21 00:14:21;;;;;;;11.00;6.57;;;;;;;;;;5032900;28;20456;-79
2021/04/21 00:16:48;;;;;;;9.33;6.60;;;;;;;;;;5033012;28;20728;-79
2021/04/21 00:19:16;;;;;;;10.52;6.38;;;;;;;;;;5032775;28;20427;-79
2021/04/21 00:21:43;;;;;;;8.05;6.05;;;;;;;;;;5032867;28;20459;-79
2021/04/21 00:24:10;;;;;;;9.32;6.13;;;;;;;;;;5031712;28;20883;-79
2021/04/21 00:26:37;;;;;;;10.80;6.72;;;;;;;;;;5032879;28;20861;-79
2021/04/21 00:29:04;;;;;;;9.07;6.57;;;;;;;;;;5033101;28;20844;-79
2021/04/21 00:31:31;;;;;;;11.15;6.68;;;;;;;;;;5032715;28;20404;-79
2021/04/21 00:33:58;;;;;;;10.82;7.38;;;;;;;;;;5031440;28;20377;-79
2021/04/21 00:36:25;;;;;;;8.13;6.97;;;;;;;;;;5033002;28;20369;-79
2021/04/21 00:38:52;;;;;;;8.93;6.90;;;;;;;;;;5032736;28;20933;-79
2021/04/21 00:41:27;;;;;;;10.80;6.55;;;;;;;;;;5032812;28;20425;-79
2021/04/21 00:43:55;;;;;;;10.00;6.53;;;;;;;;;;5032695;28;20366;-79
2021/04/21 00:46:23;;;;;;;9.77;6.82;;;;;;;;;;5031306;28;20381;-78
2021/04/21 00:49:08;;;;;;;8.82;6.43;;;;;;;;;;5031053;28;20386;-79
2021/04/21 00:51:38;;;;;;;10.43;7.55;;;;;;;;;;5032494;28;20824;-79
2021/04/21 00:54:16;;;;;;;9.93;6.88;;;;;;;;;;5032538;28;20373;-78
2021/04/21 00:57:01;;;;;;;9.13;6.82;;;;;;;;;;5032276;28;20365;-79
2021/04/21 00:59:30;;;;;;;11.85;7.05;;;;;;;;;;5030803;28;20401;-79
2021/04/21 01:01:57;;;;;;;10.20;7.50;;;;;;;;;;5032017;28;20393;-79
2021/04/21 01:04:24;;;;;;;10.07;7.20;;;;;;;;;;5031904;28;20771;-79
2021/04/21 01:06:52;;;;;;;9.30;7.38;;;;;;;;;;5031953;28;20369;-79
2021/04/21 01:09:19;;;;;;;11.15;7.68;;;;;;;;;;5031769;28;20365;-79
2021/04/21 01:11:47;;;;;;;11.10;7.68;;;;;;;;;;5031825;28;20420;-79
2021/04/21 01:14:27;;;;;;;10.88;6.68;;;;;;;;;;5031924;28;20444;-79
2021/04/21 01:17:00;;;;;;;8.67;7.07;;;;;;;;;;5031888;28;20369;-79
2021/04/21 01:19:44;;;;;;;11.57;7.57;;;;;;;;;;5031741;28;20361;-79
2021/04/21 01:22:27;;;;;;;10.77;7.67;;;;;;;;;;5031522;28;20459;-79
2021/04/21 01:24:53;;;;;;;9.13;7.68;;;;;;;;;;5031836;28;20731;-79
2021/04/21 01:27:21;;;;;;;11.90;8.40;;;;;;;;;;5031537;28;20452;-79
2021/04/21 01:29:49;;;;;;;10.00;8.17;;;;;;;;;;5031694;28;20445;-79
2021/04/21 01:32:21;;;;;;;11.48;7.50;;;;;;;;;;5031728;28;20918;-79
2021/04/21 01:34:48;;;;;;;9.15;7.30;;;;;;;;;;5031716;28;20415;-79
2021/04/21 01:37:17;;;;;;;9.88;7.13;;;;;;;;;;5031638;28;20369;-79
2021/04/21 01:39:45;;;;;;;10.23;7.63;;;;;;;;;;5031377;28;20875;-79
2021/04/21 01:42:11;;;;;;;12.63;7.60;;;;;;;;;;5031624;28;20462;-79
2021/04/21 01:44:41;;;;;;;13.60;7.07;;;;;;;;;;5029871;28;20493;-79
2021/04/21 01:47:08;;;;;;;12.13;8.15;;;;;;;;;;5031100;28;21011;-79
2021/04/21 01:49:37;;;;;;;8.60;7.30;;;;;;;;;;5031200;28;20467;-79
2021/04/21 01:52:09;;;;;;;10.10;7.07;;;;;;;;;;5029829;28;20751;-79
2021/04/21 01:54:39;;;;;;;10.80;7.45;;;;;;;;;;5031211;28;20973;-79
2021/04/21 01:57:08;;;;;;;10.80;7.90;;;;;;;;;;5030898;28;20378;-79
2021/04/21 01:59:44;;;;;;;11.38;8.25;;;;;;;;;;5030939;28;20388;-79
2021/04/21 02:02:20;;;;;;;9.95;7.35;;;;;;;;;;5030774;28;20480;-79
2021/04/21 02:04:46;;;;;;;11.50;8.32;;;;;;;;;;5031123;28;20369;-79
2021/04/21 02:07:21;;;;;;;11.75;8.23;;;;;;;;;;5030977;28;20734;-79
2021/04/21 02:09:55;;;;;;;11.00;8.85;;;;;;;;;;5029280;28;20760;-80
2021/04/21 02:12:37;;;;;;;12.15;8.75;;;;;;;;;;5030993;28;20377;-79
2021/04/21 02:15:06;;;;;;;14.27;9.30;;;;;;;;;;5029587;28;20732;-79
2021/04/21 02:17:39;;;;;;;14.15;9.60;;;;;;;;;;5030810;28;20483;-79
2021/04/21 02:20:08;;;;;;;11.60;9.02;;;;;;;;;;5030865;28;20373;-79
2021/04/21 02:22:36;;;;;;;12.68;9.65;;;;;;;;;;5029562;28;20528;-79
2021/04/21 02:25:08;;;;;;;13.98;9.90;;;;;;;;;;5030844;28;20879;-79
2021/04/21 02:27:37;;;;;;;12.35;9.48;;;;;;;;;;5030598;28;20848;-79
2021/04/21 02:30:26;;;;;;;11.63;9.55;;;;;;;;;;5031430;28;20836;-79
2021/04/21 02:33:12;;;;;;;15.15;9.77;;;;;;;;;;5033132;28;20439;-79
2021/04/21 02:35:46;;;;;;;12.27;10.10;;;;;;;;;;5031281;28;20401;-79
2021/04/21 02:38:12;;;;;;;12.05;9.68;;;;;;;;;;5031048;28;20373;-79
2021/04/21 02:40:44;;;;;;;11.38;9.57;;;;;;;;;;5030363;28;20392;-79
2021/04/21 02:43:26;;;;;;;12.02;9.95;;;;;;;;;;5030327;28;20831;-79
2021/04/21 02:45:52;;;;;;;14.27;10.05;;;;;;;;;;5030511;28;20468;-79
2021/04/21 02:48:24;;;;;;;12.40;9.32;;;;;;;;;;5030623;28;20413;-79
2021/04/21 02:50:55;;;;;;;12.23;10.25;;;;;;;;;;5030466;28;20790;-79
2021/04/21 02:53:40;;;;;;;12.52;10.18;;;;;;;;;;5030688;28;20369;-79
2021/04/21 02:56:19;;;;;;;12.77;10.30;;;;;;;;;;5030405;28;20380;-79
2021/04/21 02:59:02;;;;;;;14.32;11.13;;;;;;;;;;5030587;28;20378;-79
2021/04/21 03:01:35;;;;;;;15.88;10.43;;;;;;;;;;5031121;28;20905;-79
2021/04/21 03:04:10;;;;;;;14.77;10.70;;;;;;;;;;5030293;28;20843;-79
2021/04/21 03:06:38;;;;;;;14.13;9.82;;;;;;;;;;5045493;28;20436;-79
2021/04/21 03:09:12;;;;;;;17.00;10.00;;;;;;;;;;5030269;28;20847;-79
2021/04/21 03:11:38;;;;;;;14.35;10.00;;;;;;;;;;5049148;28;20409;-79
2021/04/21 03:14:08;;;;;;;14.65;9.35;;;;;;;;;;5034234;28;20530;-78
2021/04/21 03:16:37;;;;;;;15.23;9.90;;;;;;;;;;5032845;28;20456;-79
2021/04/21 03:19:07;;;;;;;14.50;10.07;;;;;;;;;;5034068;28;20380;-79
2021/04/21 03:21:36;;;;;;;13.20;10.10;;;;;;;;;;5033919;28;20389;-79
2021/04/21 03:24:08;;;;;;;13.45;10.10;;;;;;;;;;5034086;28;20397;-79
2021/04/21 03:26:35;;;;;;;13.27;10.23;;;;;;;;;;5049324;28;20931;-79
2021/04/21 03:29:01;;;;;;;15.65;10.82;;;;;;;;;;5034018;28;20444;-79
2021/04/21 03:31:30;;;;;;;13.83;9.50;;;;;;;;;;5034053;28;20365;-79
2021/04/21 03:33:57;;;;;;;13.20;9.57;;;;;;;;;;5033979;28;20381;-79
2021/04/21 03:36:24;;;;;;;13.07;10.05;;;;;;;;;;5034044;28;20461;-79
2021/04/21 03:38:50;;;;;;;12.37;9.23;;;;;;;;;;5033733;28;20366;-79
2021/04/21 03:41:16;;;;;;;11.98;9.80;;;;;;;;;;5033533;28;20405;-79
2021/04/21 03:43:43;;;;;;;13.30;9.05;;;;;;;;;;5033523;28;20364;-79
2021/04/21 03:46:11;;;;;;;12.65;9.35;;;;;;;;;;5033698;28;20380;-79
2021/04/21 03:48:37;;;;;;;11.07;9.68;;;;;;;;;;5033288;28;20372;-79
2021/04/21 03:51:03;;;;;;;12.55;9.85;;;;;;;;;;5033471;28;20782;-79
2021/04/21 03:53:31;;;;;;;14.23;9.18;;;;;;;;;;5033230;28;20855;-79
2021/04/21 03:55:57;;;;;;;14.73;10.00;;;;;;;;;;5033291;28;20463;-79
2021/04/21 03:58:25;;;;;;;14.85;10.00;;;;;;;;;;5033200;28;20727;-79
2021/04/21 04:00:56;;;;;;;14.15;8.77;;;;;;;;;;5048512;28;20409;-79
2021/04/21 04:03:24;;;;;;;11.27;9.60;;;;;;;;;;5033323;28;20449;-79
2021/04/21 04:06:07;;;;;;;13.95;9.60;;;;;;;;;;5033283;28;20372;-79
2021/04/21 04:08:47;;;;;;;10.75;9.65;;;;;;;;;;5032821;28;20365;-79
2021/04/21 04:11:15;;;;;;;11.30;9.95;;;;;;;;;;5031608;28;20751;-79
2021/04/21 04:13:42;;;;;;;13.35;9.38;;;;;;;;;;5032881;28;20377;-79
2021/04/21 04:16:11;;;;;;;12.13;8.88;;;;;;;;;;5032988;28;20451;-79
2021/04/21 04:18:39;;;;;;;12.65;9.45;;;;;;;;;;5031327;28;20385;-79
2021/04/21 04:21:07;;;;;;;12.40;9.18;;;;;;;;;;5031676;28;20401;-79
2021/04/21 04:23:35;;;;;;;15.13;9.90;;;;;;;;;;5032551;28;20362;-78
2021/04/21 04:26:03;;;;;;;16.02;9.57;;;;;;;;;;5032768;28;20357;-79
2021/04/21 04:28:29;;;;;;;13.85;9.93;;;;;;;;;;5032654;28;20825;-79
2021/04/21 04:30:56;;;;;;;15.15;10.15;;;;;;;;;;5032720;28;20389;-79
2021/04/21 04:33:23;;;;;;;14.35;9.32;;;;;;;;;;5048104;28;20709;-79
2021/04/21 04:35:49;;;;;;;13.90;9.23;;;;;;;;;;5032585;28;20839;-78
2021/04/21 04:38:15;;;;;;;12.52;8.90;;;;;;;;;;5026553;28;20451;-79
2021/04/21 04:40:41;;;;;;;14.02;9.35;;;;;;;;;;5032380;28;20370;-79
2021/04/21 04:43:09;;;;;;;13.60;9.32;;;;;;;;;;5031907;28;20700;-80
2021/04/21 04:45:37;;;;;;;12.75;9.10;;;;;;;;;;5031909;28;20369;-80
2021/04/21 04:48:04;;;;;;;14.57;8.82;;;;;;;;;;5031635;28;20378;-78
2021/04/21 04:50:34;;;;;;;10.25;7.88;;;;;;;;;;5031842;28;20393;-80
2021/04/21 04:53:01;;;;;;;12.20;7.63;;;;;;;;;;5031761;28;20366;-80
2021/04/21 04:55:27;;;;;;;10.77;7.67;;;;;;;;;;5031804;28;20715;-79
2021/04/21 04:57:54;;;;;;;12.33;8.00;;;;;;;;;;5031025;28;20906;-80
2021/04/21 05:00:21;;;;;;;15.75;8.55;;;;;;;;;;5031708;28;20376;-79
2021/04/21 05:03:07;;;;;;;15.88;7.75;;;;;;;;;;5029918;28;20504;-79
2021/04/21 05:05:35;;;;;;;11.75;8.80;;;;;;;;;;5030562;28;20420;-80
2021/04/21 05:08:11;;;;;;;17.50;10.40;;;;;;;;;;5027690;28;20440;-79
2021/04/21 05:10:54;;;;;;;11.40;7.95;;;;;;;;;;5030813;28;20451;-79
2021/04/21 05:13:22;;;;;;;13.63;8.27;;;;;;;;;;5032258;28;20675;-80
2021/04/21 05:15:51;;;;;;;13.05;8.15;;;;;;;;;;5030656;28;20386;-79
2021/04/21 05:18:23;;;;;;;12.55;7.25;;;;;;;;;;5031160;28;20417;-79
2021/04/21 05:20:49;;;;;;;16.85;7.88;;;;;;;;;;5029717;28;20405;-79
2021/04/21 05:23:18;;;;;;;14.75;7.75;;;;;;;;;;5024070;28;20395;-79
2021/04/21 05:25:50;;;;;;;16.63;8.27;;;;;;;;;;5020665;28;20394;-79
2021/04/21 05:28:44;;;;;;;15.23;8.40;;;;;;;;;;5016974;28;20962;-79
2021/04/21 05:31:10;;;;;;;18.15;8.90;;;;;;;;;;5010530;28;20379;-79
2021/04/21 05:33:56;;;;;;;11.90;7.97;;;;;;;;;;5008933;28;20954;-79
2021/04/21 05:36:25;;;;;;;15.77;7.70;;;;;;;;;;5007752;28;20465;-79
2021/04/21 05:38:51;;;;;;;14.17;8.10;;;;;;;;;;5008169;28;20469;-79
2021/04/21 05:41:35;;;;;;;19.70;9.07;;;;;;;;;;5008471;28;21089;-79
2021/04/21 05:44:20;;;;;;;16.08;8.57;;;;;;;;;;5008747;28;20367;-79
2021/04/21 05:47:01;;;;;;;13.10;7.65;;;;;;;;;;5008641;28;20356;-79
2021/04/21 05:49:46;;;;;;;15.35;8.10;;;;;;;;;;5010587;28;20386;-79
2021/04/21 05:52:36;;;;;;;14.65;8.50;;;;;;;;;;5011595;28;20399;-79
2021/04/21 05:55:15;;;;;;;13.90;7.65;;;;;;;;;;5011458;28;21073;-79
2021/04/21 05:57:59;;;;;;;16.38;8.75;;;;;;;;;;5011386;28;20422;-79
2021/04/21 06:00:50;;;;;;;13.30;7.68;;;;;;;;;;5011429;28;20367;-79
2021/04/21 06:03:18;;;;;;;14.07;8.23;;;;;;;;;;5011320;28;20900;-79
2021/04/21 06:05:44;;;;;;;14.02;7.95;;;;;;;;;;5011304;28;20479;-79
2021/04/21 06:08:14;;;;;;;14.32;8.95;;;;;;;;;;5012625;28;20457;-80
2021/04/21 06:10:40;;;;;;;14.68;8.07;;;;;;;;;;5030780;28;20400;-80
2021/04/21 06:13:07;;;;;;;12.43;8.77;;;;;;;;;;5029741;28;20410;-78
2021/04/21 06:15:34;;;;;;;12.63;8.32;;;;;;;;;;5031467;28;20377;-80
2021/04/21 06:18:01;;;;;;;13.57;9.13;;;;;;;;;;5030884;28;21427;-79
2021/04/21 06:20:35;;;;;;;13.40;8.45;;;;;;;;;;5026569;28;20439;-79
2021/04/21 06:23:11;;;;;;;12.27;8.95;;;;;;;;;;5028228;28;20373;-79
2021/04/21 06:25:38;;;;;;;13.48;8.55;;;;;;;;;;5025612;28;20377;-80
2021/04/21 06:28:19;;;;;;;12.00;8.73;;;;;;;;;;5023990;28;20370;-79
2021/04/21 06:30:49;;;;;;;14.07;8.75;;;;;;;;;;5025843;28;20365;-80
2021/04/21 06:33:16;;;;;;;12.18;8.98;;;;;;;;;;5022822;28;20736;-81
2021/04/21 06:35:43;;;;;;;12.95;9.18;;;;;;;;;;5027704;28;20370;-80
2021/04/21 06:38:09;;;;;;;12.25;8.43;;;;;;;;;;5029183;28;20384;-81
2021/04/21 06:40:37;;;;;;;13.20;9.07;;;;;;;;;;5027121;28;20381;-79
2021/04/21 06:43:03;;;;;;;12.75;9.15;;;;;;;;;;5028605;28;20377;-80
2021/04/21 06:45:31;;;;;;;12.52;9.05;;;;;;;;;;5027858;28;20855;-79
2021/04/21 06:47:58;;;;;;;11.37;8.33;;;;;;;;;;5024558;28;20450;-80
2021/04/21 06:50:28;;;;;;;11.13;8.70;;;;;;;;;;5027914;28;20365;-79
2021/04/21 06:52:58;;;;;;;13.20;8.80;;;;;;;;;;5025805;28;20890;-79
2021/04/21 06:55:24;;;;;;;14.17;9.20;;;;;;;;;;5028019;28;20840;-80
2021/04/21 06:57:50;;;;;;;12.40;8.95;;;;;;;;;;5028180;28;20381;-79
2021/04/21 07:00:18;;;;;;;11.90;8.85;;;;;;;;;;5026988;28;20463;-79
2021/04/21 07:02:45;;;;;;;13.00;9.00;;;;;;;;;;5023430;28;20573;-80
2021/04/21 07:05:30;;;;;;;12.40;8.80;;;;;;;;;;5027199;28;20732;-79
2021/04/21 07:08:00;;;;;;;12.00;8.70;;;;;;;;;;5028149;28;21303;-80
2021/04/21 07:10:26;;;;;;;14.40;8.50;;;;;;;;;;5027506;28;20381;-78
2021/04/21 07:12:52;;;;;;;13.32;8.65;;;;;;;;;;5026589;28;20411;-79
2021/04/21 07:15:20;;;;;;;13.52;8.98;;;;;;;;;;5027524;28;20397;-79
2021/04/21 07:17:46;;;;;;;13.13;8.63;;;;;;;;;;5028248;28;20705;-79
2021/04/21 07:20:13;;;;;;;13.63;8.53;;;;;;;;;;5028578;28;20385;-79
2021/04/21 07:22:39;;;;;;;12.25;8.20;;;;;;;;;;5027864;28;20397;-79
2021/04/21 07:25:06;;;;;;;10.07;7.78;;;;;;;;;;5027442;28;20385;-80
2021/04/21 07:27:32;;;;;;;11.57;8.48;;;;;;;;;;5027622;28;20894;-80
2021/04/21 07:29:58;;;;;;;14.88;8.30;;;;;;;;;;5028136;28;20852;-80
2021/04/21 07:32:25;;;;;;;12.93;7.50;;;;;;;;;;5027647;28;20443;-79
2021/04/21 07:35:00;;;;;;;13.25;8.00;;;;;;;;;;5027063;28;20449;-79
2021/04/21 07:37:43;;;;;;;13.10;8.27;;;;;;;;;;5027054;28;20432;-80
2021/04/21 07:40:19;;;;;;;12.07;7.77;;;;;;;;;;5022742;28;20370;-80
2021/04/21 07:42:45;;;;;;;9.15;7.40;;;;;;;;;;5025209;28;20510;-79
2021/04/21 07:45:12;;;;;;;11.40;8.55;;;;;;;;;;5026206;28;20460;-79
2021/04/21 07:47:38;;;;;;;12.88;8.25;;;;;;;;;;5024820;28;20388;-79
2021/04/21 07:50:04;;;;;;;11.52;8.13;;;;;;;;;;5026377;28;20370;-79
2021/04/21 07:52:34;;;;;;;12.63;7.87;;;;;;;;;;5027222;28;20361;-79
2021/04/21 07:55:06;;;;;;;10.07;7.78;;;;;;;;;;5028525;28;20412;-79
2021/04/21 07:57:33;;;;;;;10.57;7.68;;;;;;;;;;5032865;28;20373;-79
2021/04/21 07:59:59;;;;;;;12.65;8.18;;;;;;;;;;5031624;28;20377;-79
2021/04/21 08:02:29;;;;;;;12.10;7.97;;;;;;;;;;5032727;28;20411;-79
2021/04/21 08:04:56;;;;;;;13.17;7.93;;;;;;;;;;5033161;28;20385;-79
2021/04/21 08:07:36;;;;;;;10.68;8.00;;;;;;;;;;5018693;28;20383;-79
2021/04/21 08:10:05;;;;;;;12.07;7.80;;;;;;;;;;5020655;28;20391;-80
2021/04/21 08:12:32;;;;;;;9.80;7.75;;;;;;;;;;5023147;28;20786;-79
2021/04/21 08:14:59;;;;;;;9.67;7.30;;;;;;;;;;5028728;28;20840;-79
2021/04/21 08:17:26;;;;;;;10.70;7.60;;;;;;;;;;5029359;28;20413;-79
2021/04/21 08:19:56;;;;;;;12.23;8.27;;;;;;;;;;5029462;28;20855;-79
2021/04/21 08:22:30;;;;;;;13.45;8.13;;;;;;;;;;5032367;28;20747;-79
2021/04/21 08:24:58;;;;;;;13.32;8.60;;;;;;;;;;5032176;28;20373;-79
2021/04/21 08:27:25;;;;;;;12.83;8.30;;;;;;;;;;5032066;28;20396;-80
2021/04/21 08:29:51;;;;;;;11.18;8.65;;;;;;;;;;5028803;28;20379;-80
2021/04/21 08:32:22;;;;;;;10.98;8.13;;;;;;;;;;5023162;28;20380;-80
2021/04/21 08:34:48;;;;;;;11.88;7.85;;;;;;;;;;5032025;28;20652;-80
2021/04/21 08:37:14;;;;;;;11.32;9.00;;;;;;;;;;5030939;28;20381;-79
2021/04/21 08:39:41;;;;;;;14.82;7.97;;;;;;;;;;5010822;28;20367;-79
2021/04/21 08:42:08;;;;;;;11.93;8.38;;;;;;;;;;5018768;28;20392;-80
2021/04/21 08:44:40;;;;;;;13.45;8.65;;;;;;;;;;5029020;28;20365;-79
2021/04/21 08:47:06;;;;;;;12.63;8.50;;;;;;;;;;5028581;28;20746;-79
2021/04/21 08:49:32;;;;;;;11.45;8.50;;;;;;;;;;5030266;28;20383;-80
2021/04/21 08:51:59;;;;;;;11.63;8.35;;;;;;;;;;5026353;28;20393;-79
2021/04/21 08:54:27;;;;;;;10.40;8.30;;;;;;;;;;5030543;28;21014;-80
2021/04/21 08:56:54;;;;;;;15.25;8.32;;;;;;;;;;5031632;28;20386;-80
2021/04/21 08:59:20;;;;;;;11.27;7.97;;;;;;;;;;5023941;28;20745;-80
2021/04/21 09:01:47;;;;;;;13.63;8.10;;;;;;;;;;5027005;28;20393;-81
2021/04/21 09:04:16;;;;;;;11.60;7.97;;;;;;;;;;5031988;28;20855;-80
2021/04/21 09:06:43;;;;;;;9.88;8.07;;;;;;;;;;5031446;28;20361;-80
2021/04/21 09:09:10;;;;;;;11.90;7.90;;;;;;;;;;5030037;28;20731;-79
2021/04/21 09:11:36;;;;;;;9.98;7.68;;;;;;;;;;5030710;28;20390;-79
2021/04/21 09:14:02;;;;;;;10.25;8.13;;;;;;;;;;5039829;28;20376;-79
2021/04/21 09:16:28;;;;;;;9.68;8.02;;;;;;;;;;5025105;28;20748;-79
2021/04/21 09:18:54;;;;;;;12.25;8.27;;;;;;;;;;5012745;28;20389;-79
2021/04/21 09:21:26;;;;;;;10.73;8.00;;;;;;;;;;5029186;28;20397;-79
2021/04/21 09:23:52;;;;;;;10.13;8.00;;;;;;;;;;5029526;28;20397;-79
2021/04/21 09:26:26;;;;;;;12.27;8.20;;;;;;;;;;5030206;28;20400;-79
2021/04/21 09:28:54;;;;;;;13.48;8.45;;;;;;;;;;5030506;28;20476;-79
2021/04/21 09:31:21;;;;;;;12.82;8.27;;;;;;;;;;5030937;28;20377;-78
2021/04/21 09:33:47;;;;;;;12.55;8.25;;;;;;;;;;5030478;28;20397;-79
2021/04/21 09:36:35;;;;;;;13.85;9.00;;;;;;;;;;5011586;28;20378;-79
2021/04/21 09:39:09;;;;;;;20.83;9.30;;;;;;;;;;5012431;28;20371;-79
2021/04/21 09:41:36;;;;;;;21.57;10.10;;;;;;;;;;5030779;28;20401;-79
2021/04/21 09:44:34;;;;;;;15.38;8.82;;;;;;;;;;5030201;28;20418;-79
2021/04/21 09:47:13;;;;;;;9.52;7.80;;;;;;;;;;5019145;28;20424;-79
2021/04/21 09:49:40;;;;;;;10.82;8.27;;;;;;;;;;5023990;28;20375;-79
2021/04/21 09:52:12;;;;;;;11.27;7.82;;;;;;;;;;5027906;28;20453;-79
2021/04/21 09:54:41;;;;;;;12.10;8.30;;;;;;;;;;5009667;28;20955;-79
2021/04/21 09:57:11;;;;;;;12.10;7.97;;;;;;;;;;5010630;28;20785;-80
2021/04/21 09:59:38;;;;;;;10.43;7.13;;;;;;;;;;5025999;28;20393;-81
2021/04/21 10:02:04;;;;;;;10.07;6.63;;;;;;;;;;5015587;28;20457;-80
2021/04/21 10:04:31;;;;;;;10.27;6.30;;;;;;;;;;5019027;28;20379;-79
2021/04/21 10:06:58;;;;;;;9.17;5.33;;;;;;;;;;5008608;28;20422;-79
2021/04/21 10:09:24;;;;;;;9.68;4.88;;;;;;;;;;5007768;28;20741;-79
2021/04/21 10:11:51;;;;;;;8.17;5.33;;;;;;;;;;5008471;28;20390;-79
2021/04/21 10:14:23;;;;;;;12.18;6.15;;;;;;;;;;5009364;28;20403;-79
2021/04/21 10:16:50;;;;;;;9.55;6.05;;;;;;;;;;5008971;28;20458;-79
2021/04/21 10:19:16;;;;;;;8.60;5.95;;;;;;;;;;5008958;28;20437;-79
2021/04/21 10:21:42;;;;;;;10.43;6.15;;;;;;;;;;5010071;28;20391;-79
2021/04/21 10:24:08;;;;;;;9.38;6.00;;;;;;;;;;5008861;28;20378;-79
2021/04/21 10:26:34;;;;;;;9.00;5.88;;;;;;;;;;5022329;28;20411;-79
2021/04/21 10:29:00;;;;;;;8.45;5.60;;;;;;;;;;5030494;28;20369;-78
2021/04/21 10:31:26;;;;;;;8.18;5.68;;;;;;;;;;5030584;28;20370;-79
2021/04/21 10:33:52;;;;;;;9.73;5.53;;;;;;;;;;5030347;28;20422;-79
2021/04/21 10:36:18;;;;;;;8.65;5.90;;;;;;;;;;5030528;28;20571;-80
2021/04/21 10:38:45;;;;;;;8.57;5.35;;;;;;;;;;5030287;28;20374;-80
2021/04/21 10:41:25;;;;;;;8.70;5.93;;;;;;;;;;5030158;28;20449;-81
2021/04/21 10:43:51;;;;;;;8.68;5.50;;;;;;;;;;5028847;28;20531;-80
2021/04/21 10:46:18;;;;;;;8.53;5.50;;;;;;;;;;5030319;28;20369;-80
2021/04/21 10:48:45;;;;;;;10.18;5.20;;;;;;;;;;5030130;28;20369;-80
2021/04/21 10:51:30;;;;;;;8.98;5.43;;;;;;;;;;5030213;28;20368;-80
2021/04/21 10:54:00;;;;;;;8.05;5.30;;;;;;;;;;5030188;28;20781;-80
2021/04/21 10:56:26;;;;;;;7.57;5.10;;;;;;;;;;5030180;28;20373;-80
2021/04/21 10:58:56;;;;;;;7.25;4.95;;;;;;;;;;5027755;28;21809;-80
2021/04/21 11:01:34;;;;;;;9.85;5.20;;;;;;;;;;5027924;28;20922;-80
2021/04/21 11:04:01;;;;;;;8.60;4.70;;;;;;;;;;5032292;28;20856;-80
2021/04/21 11:06:39;;;;;;;9.20;4.80;;;;;;;;;;5029664;28;20392;-80
2021/04/21 11:09:05;;;;;;;7.70;4.93;;;;;;;;;;5028775;28;20756;-80
2021/04/21 11:11:35;;;;;;;7.80;5.15;;;;;;;;;;5029417;28;20417;-80
2021/04/21 11:14:01;;;;;;;6.93;4.68;;;;;;;;;;5029954;28;20804;-78
2021/04/21 11:16:37;;;;;;;8.32;4.90;;;;;;;;;;5029704;28;20863;-78
2021/04/21 11:19:19;;;;;;;11.10;4.63;;;;;;;;;;5029019;28;20389;-78
2021/04/21 11:21:47;;;;;;;7.45;4.60;;;;;;;;;;5029359;28;20463;-78
2021/04/21 11:24:13;;;;;;;8.68;5.20;;;;;;;;;;5030236;28;20432;-78
2021/04/21 11:26:44;;;;;;;9.60;5.38;;;;;;;;;;5029147;28;20942;-78
2021/04/21 11:29:12;;;;;;;7.85;5.40;;;;;;;;;;5029807;28;20369;-78
2021/04/21 11:31:44;;;;;;;7.97;5.15;;;;;;;;;;5031485;28;20378;-78
2021/04/21 11:34:13;;;;;;;9.23;5.67;;;;;;;;;;5033643;28;20401;-78
2021/04/21 11:36:39;;;;;;;9.88;5.40;;;;;;;;;;5033490;28;20900;-78
2021/04/21 11:39:05;;;;;;;9.57;5.00;;;;;;;;;;5032309;28;20464;-78
2021/04/21 11:41:47;;;;;;;7.10;5.13;;;;;;;;;;5033181;28;20867;-78
2021/04/21 11:44:32;;;;;;;8.00;5.20;;;;;;;;;;5033432;28;20457;-79
2021/04/21 11:46:59;;;;;;;9.23;4.85;;;;;;;;;;5032972;28;20440;-80
2021/04/21 11:49:45;;;;;;;9.75;4.68;;;;;;;;;;5033363;28;20441;-78
2021/04/21 11:52:31;;;;;;;14.47;5.40;;;;;;;;;;5033275;28;20373;-79
2021/04/21 11:54:57;;;;;;;14.43;5.90;;;;;;;;;;5033328;28;20373;-81
2021/04/21 11:57:23;;;;;;;8.85;5.00;;;;;;;;;;5032980;28;20844;-79
2021/04/21 11:59:50;;;;;;;11.25;5.00;;;;;;;;;;5033320;28;20950;-78
2021/04/21 12:02:17;;;;;;;10.60;5.03;;;;;;;;;;5033327;28;20389;-79
2021/04/21 12:04:43;;;;;;;11.32;5.15;;;;;;;;;;5033231;28;20374;-78
2021/04/21 12:07:09;;;;;;;14.77;5.07;;;;;;;;;;5033250;28;20370;-79
2021/04/21 12:09:35;;;;;;;9.65;4.50;;;;;;;;;;5032821;28;20370;-80
2021/04/21 12:12:01;;;;;;;9.57;4.40;;;;;;;;;;5032831;28;20384;-79
2021/04/21 12:14:27;;;;;;;14.45;5.10;;;;;;;;;;5031770;28;20369;-79
2021/04/21 12:16:53;;;;;;;11.43;5.18;;;;;;;;;;5032893;28;20412;-78
2021/04/21 12:19:19;;;;;;;7.95;4.40;;;;;;;;;;5032783;28;20814;-79
2021/04/21 12:21:45;;;;;;;23.60;6.40;;;;;;;;;;5032542;28;20480;-79
2021/04/21 12:24:11;;;;;;;21.63;5.75;;;;;;;;;;5032355;28;20443;-76
2021/04/21 12:26:39;;;;;;;15.75;5.15;;;;;;;;;;5032222;28;20357;-76
2021/04/21 12:29:05;;;;;;;26.83;6.38;;;;;;;;;;5032330;28;20400;-77
2021/04/21 12:31:31;;;;;;;8.83;5.00;;;;;;;;;;5032639;28;20373;-76
2021/04/21 12:33:58;;;;;;;9.60;5.03;;;;;;;;;;5032855;28;20377;-76
2021/04/21 12:36:29;;;;;;;14.98;5.38;;;;;;;;;;5032665;28;20434;-77
2021/04/21 12:39:06;;;;;;;7.38;4.82;;;;;;;;;;5030825;28;20385;-78
2021/04/21 12:41:32;;;;;;;9.95;4.85;;;;;;;;;;5032697;28;20451;-78
2021/04/21 12:44:14;;;;;;;8.50;5.40;;;;;;;;;;5031721;28;20423;-78
2021/04/21 12:46:41;;;;;;;10.60;5.60;;;;;;;;;;5032464;28;20401;-78
2021/04/21 12:49:07;;;;;;;9.13;5.65;;;;;;;;;;5031080;28;20387;-77
2021/04/21 12:51:33;;;;;;;7.65;4.90;;;;;;;;;;5032095;28;20748;-78
2021/04/21 12:54:01;;;;;;;12.50;5.78;;;;;;;;;;5031151;28;20856;-78
2021/04/21 12:56:38;;;;;;;7.88;4.90;;;;;;;;;;5032596;28;20378;-78
2021/04/21 12:59:17;;;;;;;9.60;4.63;;;;;;;;;;5022437;28;20489;-78
2021/04/21 13:01:43;;;;;;;6.90;4.70;;;;;;;;;;5028541;28;20876;-78
2021/04/21 13:04:12;;;;;;;7.22;4.65;;;;;;;;;;5032204;28;20886;-78
2021/04/21 13:06:39;;;;;;;7.28;3.95;;;;;;;;;;5032179;28;20361;-78
2021/04/21 13:09:05;;;;;;;6.10;4.10;;;;;;;;;;5031854;28;20416;-78
2021/04/21 13:11:31;;;;;;;7.90;3.83;;;;;;;;;;5031937;28;20889;-77
2021/04/21 13:13:57;;;;;;;10.75;4.25;;;;;;;;;;5031384;28;20892;-77
2021/04/21 13:16:27;;;;;;;11.27;4.70;;;;;;;;;;5031723;28;20440;-80
2021/04/21 13:18:54;;;;;;;16.92;5.00;;;;;;;;;;5029946;28;20376;-80
2021/04/21 13:21:21;;;;;;;11.23;5.10;;;;;;;;;;5031489;28;20389;-80
2021/04/21 13:23:54;;;;;;;13.38;5.07;;;;;;;;;;5032151;28;20448;-80
2021/04/21 13:26:22;;;;;;;11.02;5.07;;;;;;;;;;5031926;28;20423;-80
2021/04/21 13:28:52;;;;;;;11.25;4.80;;;;;;;;;;5031539;28;20975;-80
2021/04/21 13:31:25;;;;;;;10.82;5.18;;;;;;;;;;5031444;28;20396;-80
2021/04/21 13:33:51;;;;;;;7.43;4.72;;;;;;;;;;5030437;28;20400;-80
2021/04/21 13:36:17;;;;;;;9.45;4.80;;;;;;;;;;5031367;28;20370;-80
2021/04/21 13:38:43;;;;;;;12.50;5.25;;;;;;;;;;5029350;28;20531;-82
2021/04/21 13:41:10;;;;;;;9.05;4.65;;;;;;;;;;5030705;28;20969;-80
2021/04/21 13:43:36;;;;;;;6.97;4.05;;;;;;;;;;5030913;28;20378;-80
2021/04/21 13:46:02;;;;;;;7.30;4.05;;;;;;;;;;5033118;28;20449;-81
2021/04/21 13:48:31;;;;;;;9.23;4.80;;;;;;;;;;5031368;28;20377;-80
2021/04/21 13:50:57;;;;;;;7.50;4.20;;;;;;;;;;5030042;28;20377;-81
2021/04/21 13:53:23;;;;;;;9.63;4.43;;;;;;;;;;5031061;28;20369;-81
2021/04/21 13:55:49;;;;;;;9.57;4.93;;;;;;;;;;5031188;28;20852;-81
2021/04/21 13:58:16;;;;;;;9.40;4.75;;;;;;;;;;5029553;28;20458;-81
2021/04/21 14:00:41;;;;;;;8.85;5.38;;;;;;;;;;5028915;28;20369;-80
2021/04/21 14:03:08;;;;;;;9.85;5.50;;;;;;;;;;5032163;28;20428;-81
2021/04/21 14:05:35;;;;;;;7.57;4.65;;;;;;;;;;5022469;28;20370;-81
2021/04/21 14:08:01;;;;;;;7.70;5.20;;;;;;;;;;5029250;28;20378;-81
2021/04/21 14:10:27;;;;;;;7.50;4.68;;;;;;;;;;5030539;28;20391;-81
2021/04/21 14:12:53;;;;;;;7.40;5.05;;;;;;;;;;5029390;28;20724;-81
2021/04/21 14:15:21;;;;;;;9.50;4.65;;;;;;;;;;5028132;28;20397;-81
2021/04/21 14:17:47;;;;;;;7.13;5.10;;;;;;;;;;5029318;28;20376;-81
2021/04/21 14:20:14;;;;;;;7.43;5.03;;;;;;;;;;5029412;28;20900;-81
2021/04/21 14:22:41;;;;;;;8.63;5.70;;;;;;;;;;5028806;28;20416;-81
2021/04/21 14:25:08;;;;;;;7.72;4.65;;;;;;;;;;5028330;28;20365;-81
2021/04/21 14:27:34;;;;;;;11.23;5.63;;;;;;;;;;5028712;28;20369;-81
2021/04/21 14:30:00;;;;;;;9.50;5.17;;;;;;;;;;5028925;28;20373;-81
2021/04/21 14:32:27;;;;;;;10.43;5.00;;;;;;;;;;5029208;28;20384;-81
2021/04/21 14:34:53;;;;;;;8.43;5.60;;;;;;;;;;5027754;28;20392;-81
2021/04/21 14:37:19;;;;;;;9.25;5.13;;;;;;;;;;5039392;28;20365;-81
2021/04/21 14:39:45;;;;;;;13.55;5.47;;;;;;;;;;5027024;28;20367;-81
2021/04/21 14:42:11;;;;;;;11.05;5.57;;;;;;;;;;5028557;28;20744;-81
2021/04/21 14:44:37;;;;;;;7.78;5.65;;;;;;;;;;5028940;28;20354;-81
2021/04/21 14:47:04;;;;;;;8.85;5.95;;;;;;;;;;5028344;28;20875;-81
2021/04/21 14:49:30;;;;;;;9.52;5.90;;;;;;;;;;5030570;28;20366;-82